Time;durP1;ratioP1;P1;durP2;ratioP2;P2;SDS_P1;SDS_P2;PMS_P1;PMS_P2;Temp;Humidity;BMP_temperature;BMP_pressure;BME280_temperature;BME280_humidity;BME280_pressure;Samples;Min_cycle;Max_cycle;Signal;HPM_P1;HPM_P2
2022/03/03 00:00:56;;;;;;;6.50;2.10;;;1.30;99.90;;;;;;4443329;32;20124;-66
2022/03/03 00:03:21;;;;;;;1.42;1.33;;;1.30;99.90;;;;;;4444172;32;20065;-66
2022/03/03 00:05:47;;;;;;;3.50;2.58;;;1.50;99.90;;;;;;4443276;32;20386;-66
2022/03/03 00:08:13;;;;;;;1.83;1.45;;;1.40;99.90;;;;;;4449350;32;20134;-66
2022/03/03 00:10:38;;;;;;;1.70;1.52;;;1.30;99.90;;;;;;4440000;32;20065;-66
2022/03/03 00:13:04;;;;;;;0.85;0.85;;;1.10;99.90;;;;;;4439597;32;20065;-66
2022/03/03 00:15:34;;;;;;;1.30;1.23;;;1.00;99.90;;;;;;4447358;32;20127;-66
2022/03/03 00:17:59;;;;;;;1.37;1.27;;;1.20;99.90;;;;;;4444196;32;20528;-66
2022/03/03 00:20:25;;;;;;;1.08;0.62;;;1.40;99.90;;;;;;4443798;32;20061;-66
2022/03/03 00:22:50;;;;;;;7.12;2.17;;;1.40;99.90;;;;;;4437044;32;20125;-66
2022/03/03 00:25:17;;;;;;;0.77;0.77;;;1.50;99.90;;;;;;4434598;32;20080;-66
2022/03/03 00:27:42;;;;;;;5.30;1.60;;;1.50;99.90;;;;;;4434817;32;20065;-65
2022/03/03 00:30:08;;;;;;;1.80;1.33;;;1.60;99.90;;;;;;4440712;32;20085;-65
2022/03/03 00:32:40;;;;;;;1.87;1.65;;;1.70;99.90;;;;;;4443779;32;20128;-65
2022/03/03 00:35:07;;;;;;;1.48;1.37;;;1.60;99.90;;;;;;4434975;32;20082;-65
2022/03/03 00:37:32;;;;;;;2.53;1.55;;;1.60;99.90;;;;;;4430163;32;20057;-65
2022/03/03 00:39:57;;;;;;;1.33;1.20;;;1.60;99.90;;;;;;4436104;32;20081;-65
2022/03/03 00:42:23;;;;;;;0.90;0.90;;;1.70;99.90;;;;;;4439202;32;20073;-66
2022/03/03 00:44:48;;;;;;;0.80;0.80;;;1.60;99.90;;;;;;4442719;32;20072;-66
2022/03/03 00:47:14;;;;;;;1.40;1.30;;;1.60;99.90;;;;;;4441785;32;20068;-66
2022/03/03 00:49:39;;;;;;;1.42;1.27;;;1.50;99.90;;;;;;4439099;32;20078;-66
2022/03/03 00:52:05;;;;;;;0.80;0.80;;;1.40;99.90;;;;;;4437305;32;20123;-66
2022/03/03 00:54:30;;;;;;;1.35;1.25;;;1.40;99.90;;;;;;4440588;32;20061;-66
2022/03/03 00:56:56;;;;;;;5.18;2.08;;;1.40;99.90;;;;;;4443684;32;20388;-66
2022/03/03 00:59:22;;;;;;;3.17;1.98;;;1.40;99.90;;;;;;4440022;32;20078;-66
2022/03/03 01:01:47;;;;;;;7.40;2.95;;;1.40;99.90;;;;;;4433866;32;20062;-66
2022/03/03 01:04:13;;;;;;;5.37;3.22;;;1.20;99.90;;;;;;4442133;32;20191;-66
2022/03/03 01:06:39;;;;;;;1.90;1.58;;;1.00;99.90;;;;;;4443415;32;20069;-66
2022/03/03 01:09:05;;;;;;;1.27;1.05;;;0.80;99.90;;;;;;4443410;32;20065;-66
2022/03/03 01:11:31;;;;;;;0.70;0.70;;;0.90;99.90;;;;;;4436993;32;20074;-66
2022/03/03 01:13:56;;;;;;;1.87;1.45;;;0.90;99.90;;;;;;4438903;32;20065;-66
2022/03/03 01:16:22;;;;;;;3.08;1.83;;;0.90;99.90;;;;;;4440855;32;20143;-66
2022/03/03 01:18:47;;;;;;;1.62;1.27;;;1.00;99.90;;;;;;4444777;32;20074;-66
2022/03/03 01:21:13;;;;;;;0.93;0.93;;;1.10;99.90;;;;;;4437760;32;20085;-66
2022/03/03 01:23:38;;;;;;;1.65;1.50;;;1.10;99.90;;;;;;4427796;32;20537;-66
2022/03/03 01:26:04;;;;;;;3.12;1.50;;;1.20;99.90;;;;;;4449156;32;20407;-66
2022/03/03 01:28:29;;;;;;;1.25;1.15;;;1.20;99.90;;;;;;4434399;32;20480;-66
2022/03/03 01:30:55;;;;;;;7.25;1.85;;;1.20;99.90;;;;;;4437118;32;20057;-66
2022/03/03 01:33:20;;;;;;;1.60;1.23;;;1.10;99.90;;;;;;4440782;32;20572;-66
2022/03/03 01:35:46;;;;;;;10.93;2.00;;;1.10;99.90;;;;;;4442073;32;20492;-66
2022/03/03 01:38:11;;;;;;;1.25;1.15;;;1.10;99.90;;;;;;4444459;32;20190;-66
2022/03/03 01:40:37;;;;;;;1.35;1.25;;;1.10;99.90;;;;;;4436708;32;20065;-66
2022/03/03 01:43:03;;;;;;;1.10;1.10;;;1.00;99.90;;;;;;4441641;32;20073;-66
2022/03/03 01:45:29;;;;;;;1.23;1.15;;;1.00;99.90;;;;;;4442841;32;20073;-66
2022/03/03 01:47:54;;;;;;;2.70;1.87;;;1.00;99.90;;;;;;4443543;32;20123;-66
2022/03/03 01:50:20;;;;;;;1.62;1.55;;;1.00;99.90;;;;;;4439877;32;20116;-66
2022/03/03 01:52:45;;;;;;;1.73;1.62;;;1.10;99.90;;;;;;4440844;32;20141;-66
2022/03/03 01:55:11;;;;;;;6.43;2.25;;;1.10;99.90;;;;;;4442901;32;20430;-66
2022/03/03 01:57:37;;;;;;;1.15;1.02;;;1.20;99.90;;;;;;4443166;32;20053;-66
2022/03/03 02:00:05;;;;;;;13.52;1.95;;;1.20;99.90;;;;;;4445167;32;20109;-65
2022/03/03 02:02:31;;;;;;;4.10;2.30;;;1.10;99.90;;;;;;4441623;32;20061;-65
2022/03/03 02:04:56;;;;;;;1.52;1.40;;;1.20;99.90;;;;;;4442364;32;20085;-65
2022/03/03 02:07:22;;;;;;;0.88;0.88;;;1.30;99.90;;;;;;4442590;32;20080;-65
2022/03/03 02:09:47;;;;;;;0.98;0.93;;;1.30;99.90;;;;;;4442194;32;20403;-65
2022/03/03 02:12:13;;;;;;;1.20;1.12;;;1.30;99.90;;;;;;4441997;32;20313;-65
2022/03/03 02:14:41;;;;;;;2.03;1.50;;;1.40;99.90;;;;;;4448795;32;20454;-65
2022/03/03 02:17:07;;;;;;;1.10;1.00;;;1.40;99.90;;;;;;4442422;32;20102;-65
2022/03/03 02:19:32;;;;;;;0.90;0.90;;;1.30;99.90;;;;;;4442002;32;20053;-65
2022/03/03 02:21:58;;;;;;;0.65;0.65;;;1.30;99.90;;;;;;4438769;32;20068;-65
2022/03/03 02:24:23;;;;;;;2.42;1.52;;;1.20;99.90;;;;;;4441949;32;20524;-65
2022/03/03 02:26:49;;;;;;;0.85;0.85;;;1.00;99.90;;;;;;4442999;32;20570;-65
2022/03/03 02:29:15;;;;;;;4.60;2.10;;;0.90;99.90;;;;;;4434352;32;20069;-65
2022/03/03 02:31:40;;;;;;;0.60;0.60;;;0.90;99.90;;;;;;4433794;32;20121;-65
2022/03/03 02:34:06;;;;;;;3.20;2.47;;;1.00;99.90;;;;;;4436218;32;20454;-65
2022/03/03 02:36:32;;;;;;;2.28;1.95;;;1.10;99.90;;;;;;4439681;32;20061;-65
2022/03/03 02:38:59;;;;;;;1.75;1.35;;;1.10;99.90;;;;;;4439939;32;20120;-65
2022/03/03 02:41:25;;;;;;;24.00;2.35;;;1.20;99.90;;;;;;4443400;32;20069;-65
2022/03/03 02:43:52;;;;;;;0.60;0.60;;;1.20;99.90;;;;;;4436000;32;20108;-65
2022/03/03 02:46:18;;;;;;;5.18;2.40;;;1.20;99.90;;;;;;4441962;32;20522;-65
2022/03/03 02:48:44;;;;;;;2.70;1.87;;;1.10;99.90;;;;;;4435309;32;20117;-65
2022/03/03 02:51:09;;;;;;;2.45;1.85;;;1.10;99.90;;;;;;4441611;32;20082;-65
2022/03/03 02:53:36;;;;;;;12.63;3.35;;;1.20;99.90;;;;;;4434627;32;20058;-65
2022/03/03 02:56:03;;;;;;;8.20;3.10;;;1.30;99.90;;;;;;4426815;32;20353;-65
2022/03/03 02:58:29;;;;;;;1.60;1.25;;;1.40;99.90;;;;;;4433113;32;20058;-65
2022/03/03 03:03:34;;;;;;;4.40;2.03;;;1.40;99.90;;;;;;4427796;32;20065;-65
2022/03/03 03:04:20;;;;;;;1.20;1.10;;;1.40;99.90;;;;;;4415575;32;20445;-65
2022/03/03 03:06:45;;;;;;;3.30;1.85;;;1.50;99.90;;;;;;4441388;32;20135;-65
2022/03/03 03:09:11;;;;;;;3.03;2.08;;;1.60;99.90;;;;;;4438396;32;20435;-65
2022/03/03 03:11:36;;;;;;;2.40;1.83;;;1.70;99.90;;;;;;4440863;32;20068;-65
2022/03/03 03:14:02;;;;;;;2.15;1.95;;;1.70;99.90;;;;;;4442400;32;20061;-65
2022/03/03 03:16:27;;;;;;;1.70;1.58;;;1.70;99.90;;;;;;4446589;32;20508;-65
2022/03/03 03:18:53;;;;;;;0.98;0.98;;;1.70;99.90;;;;;;4443460;32;20107;-66
2022/03/03 03:21:18;;;;;;;1.77;1.50;;;1.60;99.90;;;;;;4441847;32;20132;-66
2022/03/03 03:23:44;;;;;;;3.03;1.73;;;1.60;99.90;;;;;;4444327;32;20101;-66
2022/03/03 03:26:09;;;;;;;1.70;1.60;;;1.50;99.90;;;;;;4446033;32;20073;-66
2022/03/03 03:28:35;;;;;;;1.25;1.15;;;1.40;99.90;;;;;;4439469;32;20070;-66
2022/03/03 03:31:00;;;;;;;1.62;1.52;;;1.40;99.90;;;;;;4445204;32;20084;-66
2022/03/03 03:33:26;;;;;;;1.70;1.60;;;1.40;99.90;;;;;;4445089;32;20072;-66
2022/03/03 03:35:51;;;;;;;5.45;2.85;;;1.30;99.90;;;;;;4442373;32;20086;-66
2022/03/03 03:38:16;;;;;;;0.90;0.90;;;0.90;99.90;;;;;;4443777;32;20513;-66
2022/03/03 03:40:42;;;;;;;11.90;2.60;;;0.90;99.90;;;;;;4443842;32;20076;-66
2022/03/03 03:43:08;;;;;;;1.27;1.17;;;1.00;99.90;;;;;;4444806;32;20061;-66
2022/03/03 03:45:35;;;;;;;1.98;1.77;;;1.00;99.90;;;;;;4446586;32;20065;-66
2022/03/03 03:48:01;;;;;;;2.20;1.02;;;1.10;99.90;;;;;;4444086;32;20123;-66
2022/03/03 03:50:28;;;;;;;1.27;1.17;;;1.20;99.90;;;;;;4444515;32;20112;-66
2022/03/03 03:52:54;;;;;;;1.67;1.33;;;1.20;99.90;;;;;;4446658;32;20069;-66
2022/03/03 03:55:20;;;;;;;3.17;2.25;;;1.10;99.90;;;;;;4445841;32;20065;-66
2022/03/03 03:57:45;;;;;;;0.73;0.73;;;0.90;99.90;;;;;;4446668;32;20057;-65
2022/03/03 04:00:14;;;;;;;1.15;0.95;;;0.90;99.90;;;;;;4444085;32;20356;-65
2022/03/03 04:02:41;;;;;;;0.80;0.80;;;0.70;99.90;;;;;;4444712;32;20485;-65
2022/03/03 04:05:07;;;;;;;0.85;0.85;;;0.60;99.90;;;;;;4445999;32;20120;-65
2022/03/03 04:07:32;;;;;;;1.00;1.00;;;0.60;99.90;;;;;;4444566;32;20127;-66
2022/03/03 04:09:58;;;;;;;1.48;1.08;;;0.70;99.90;;;;;;4442849;32;20112;-66
2022/03/03 04:12:23;;;;;;;0.77;0.77;;;0.70;99.90;;;;;;4443490;32;20068;-66
2022/03/03 04:14:49;;;;;;;7.60;2.50;;;0.70;99.90;;;;;;4443937;32;20077;-66
2022/03/03 04:17:14;;;;;;;2.15;1.65;;;0.60;99.90;;;;;;4433422;32;20058;-66
2022/03/03 04:19:40;;;;;;;7.53;1.60;;;0.60;99.90;;;;;;4433005;32;20077;-66
2022/03/03 04:22:05;;;;;;;1.05;1.00;;;0.70;99.90;;;;;;4436223;32;20478;-66
2022/03/03 04:24:31;;;;;;;9.38;2.67;;;0.80;99.90;;;;;;4444638;32;20064;-66
2022/03/03 04:26:56;;;;;;;0.98;0.98;;;0.80;99.90;;;;;;4444313;32;20119;-66
2022/03/03 04:29:22;;;;;;;2.20;1.37;;;0.70;99.90;;;;;;4446033;32;20080;-66
2022/03/03 04:31:50;;;;;;;3.30;2.05;;;0.60;99.90;;;;;;4442629;32;20061;-66
2022/03/03 04:34:16;;;;;;;3.47;2.25;;;0.50;99.90;;;;;;4430850;32;20341;-66
2022/03/03 04:36:41;;;;;;;1.23;1.15;;;0.50;99.90;;;;;;4445683;32;20065;-66
2022/03/03 04:39:07;;;;;;;8.80;3.08;;;0.60;99.90;;;;;;4442803;32;20081;-66
2022/03/03 04:41:32;;;;;;;2.85;1.48;;;0.60;99.90;;;;;;4448942;32;20057;-66
2022/03/03 04:43:58;;;;;;;3.30;1.90;;;0.30;99.90;;;;;;4448397;32;20096;-66
2022/03/03 04:46:23;;;;;;;0.90;0.90;;;0.20;99.90;;;;;;4443864;32;20066;-66
2022/03/03 04:48:48;;;;;;;2.22;1.55;;;0.30;99.90;;;;;;4443832;32;20064;-66
2022/03/03 04:51:14;;;;;;;1.23;1.17;;;0.30;99.90;;;;;;4443790;32;20468;-66
2022/03/03 04:53:39;;;;;;;1.90;1.52;;;0.30;99.90;;;;;;4443282;32;20085;-66
2022/03/03 04:56:05;;;;;;;1.92;1.83;;;0.20;99.90;;;;;;4446598;32;20081;-66
2022/03/03 04:58:31;;;;;;;0.68;0.68;;;0.10;99.90;;;;;;4428886;32;20081;-66
2022/03/03 05:00:57;;;;;;;0.95;0.95;;;0.00;99.90;;;;;;4431671;32;20486;-66
2022/03/03 05:03:22;;;;;;;0.73;0.73;;;-0.10;99.90;;;;;;4438340;32;20134;-66
2022/03/03 05:05:48;;;;;;;5.70;2.80;;;-0.20;99.90;;;;;;4436415;32;20081;-66
2022/03/03 05:08:13;;;;;;;17.75;2.15;;;-0.20;99.90;;;;;;4443014;32;20073;-66
2022/03/03 05:10:39;;;;;;;1.33;1.23;;;-0.20;99.90;;;;;;4444294;32;20525;-66
2022/03/03 05:13:04;;;;;;;0.90;0.90;;;-0.20;99.90;;;;;;4443187;32;20086;-65
2022/03/03 05:15:29;;;;;;;1.12;1.02;;;-0.20;99.90;;;;;;4438218;32;20168;-65
2022/03/03 05:17:55;;;;;;;1.30;1.20;;;-0.10;99.90;;;;;;4437491;32;20072;-66
2022/03/03 05:20:21;;;;;;;1.12;1.12;;;0.10;99.90;;;;;;4441515;32;20065;-66
2022/03/03 05:22:46;;;;;;;5.55;2.83;;;0.10;99.90;;;;;;4433987;32;20116;-66
2022/03/03 05:25:12;;;;;;;2.12;1.92;;;0.20;99.90;;;;;;4435306;32;20505;-66
2022/03/03 05:27:39;;;;;;;2.80;1.58;;;0.30;99.90;;;;;;4442430;32;20064;-65
2022/03/03 05:30:06;;;;;;;0.95;0.95;;;0.40;99.90;;;;;;4434453;32;20072;-66
2022/03/03 05:32:32;;;;;;;2.55;1.30;;;0.40;99.90;;;;;;4433603;32;20057;-66
2022/03/03 05:34:57;;;;;;;2.50;1.25;;;0.50;99.90;;;;;;4438477;32;20541;-66
2022/03/03 05:37:24;;;;;;;1.70;1.20;;;0.60;99.90;;;;;;4441665;32;20060;-66
2022/03/03 05:39:51;;;;;;;1.90;1.77;;;0.70;99.90;;;;;;4439986;32;20073;-66
2022/03/03 05:42:19;;;;;;;0.90;0.90;;;0.70;99.90;;;;;;4438906;32;20060;-66
2022/03/03 05:44:47;;;;;;;0.98;0.98;;;0.60;99.90;;;;;;4437587;32;20144;-66
2022/03/03 05:47:13;;;;;;;0.60;0.60;;;0.50;99.90;;;;;;4440056;32;20108;-66
2022/03/03 05:49:41;;;;;;;1.95;1.30;;;0.30;99.90;;;;;;4440870;32;20510;-66
2022/03/03 05:52:08;;;;;;;2.78;1.52;;;0.20;99.90;;;;;;4453065;32;20074;-66
2022/03/03 05:54:34;;;;;;;0.82;0.82;;;0.30;99.90;;;;;;4442804;32;20086;-66
2022/03/03 05:57:01;;;;;;;0.75;0.70;;;0.50;99.90;;;;;;4435998;32;20057;-66
2022/03/03 05:59:31;;;;;;;3.25;1.75;;;0.50;99.90;;;;;;4432086;32;20140;-66
2022/03/03 06:01:58;;;;;;;9.38;2.37;;;0.50;99.90;;;;;;4430120;32;20057;-66
2022/03/03 06:04:28;;;;;;;7.30;1.92;;;0.30;99.90;;;;;;4433754;32;20506;-66
2022/03/03 06:07:03;;;;;;;0.82;0.77;;;0.20;99.90;;;;;;4431481;32;20080;-66
2022/03/03 06:09:32;;;;;;;0.90;0.90;;;0.40;99.90;;;;;;4417814;32;20116;-66
2022/03/03 06:12:03;;;;;;;1.27;1.25;;;0.40;99.90;;;;;;4430594;32;20068;-66
2022/03/03 06:14:53;;;;;;;1.48;1.37;;;0.60;99.90;;;;;;4437646;32;20572;-66
2022/03/03 06:17:21;;;;;;;1.70;1.60;;;0.20;99.90;;;;;;4411948;32;20089;-65
2022/03/03 06:19:49;;;;;;;5.00;2.65;;;0.20;99.90;;;;;;4431644;32;20123;-65
2022/03/03 06:22:15;;;;;;;1.58;1.48;;;0.10;99.90;;;;;;4428015;32;20072;-65
2022/03/03 06:24:41;;;;;;;3.17;2.00;;;0.10;99.90;;;;;;4435859;32;20057;-66
2022/03/03 06:27:09;;;;;;;0.60;0.60;;;0.20;99.90;;;;;;4421795;32;20085;-65
2022/03/03 06:29:36;;;;;;;0.70;0.70;;;0.30;99.90;;;;;;4424162;32;20671;-66
2022/03/03 06:32:03;;;;;;;0.98;0.95;;;0.40;99.90;;;;;;4408979;32;20513;-66
2022/03/03 06:34:28;;;;;;;4.57;1.52;;;0.40;99.90;;;;;;4428923;32;20074;-65
2022/03/03 06:36:55;;;;;;;1.77;1.67;;;0.50;99.90;;;;;;4431582;32;20607;-66
2022/03/03 06:39:21;;;;;;;2.62;2.03;;;0.60;99.90;;;;;;4428606;32;20081;-66
2022/03/03 06:41:47;;;;;;;3.42;1.62;;;0.80;99.90;;;;;;4429611;32;20085;-66
2022/03/03 06:44:13;;;;;;;2.03;1.52;;;0.80;99.90;;;;;;4430165;32;20073;-66
2022/03/03 06:46:39;;;;;;;0.90;0.90;;;0.70;99.90;;;;;;4426705;32;20197;-66
2022/03/03 06:49:05;;;;;;;2.67;1.80;;;0.70;99.90;;;;;;4427512;32;20073;-67
2022/03/03 06:51:41;;;;;;;3.35;2.40;;;0.80;99.90;;;;;;4432123;32;20479;-67
2022/03/03 06:54:12;;;;;;;1.33;1.25;;;1.00;99.90;;;;;;4430803;32;20068;-66
2022/03/03 06:56:49;;;;;;;2.95;1.40;;;1.00;99.90;;;;;;4423526;32;20105;-66
2022/03/03 06:59:17;;;;;;;2.70;2.17;;;0.90;99.90;;;;;;4426839;32;20072;-66
2022/03/03 07:01:44;;;;;;;8.15;1.60;;;0.90;99.90;;;;;;4422979;32;20073;-66
2022/03/03 07:04:13;;;;;;;1.58;1.25;;;1.00;99.90;;;;;;4421835;32;20539;-65
2022/03/03 07:06:39;;;;;;;1.05;1.00;;;1.20;99.90;;;;;;4423107;32;20602;-65
2022/03/03 07:09:05;;;;;;;0.95;0.95;;;1.30;99.90;;;;;;4432503;32;20189;-65
2022/03/03 07:11:31;;;;;;;3.42;1.85;;;1.50;99.90;;;;;;4429772;32;20097;-66
2022/03/03 07:13:58;;;;;;;3.83;1.23;;;1.50;99.90;;;;;;4429380;32;20177;-65
2022/03/03 07:16:50;;;;;;;0.75;0.75;;;1.50;99.90;;;;;;4427160;32;20217;-66
2022/03/03 07:19:43;;;;;;;1.75;1.12;;;1.60;99.90;;;;;;4414545;32;20077;-65
2022/03/03 07:22:33;;;;;;;4.07;1.02;;;1.60;99.90;;;;;;4422402;32;21675;-66
2022/03/03 07:25:05;;;;;;;7.40;3.13;;;1.80;99.90;;;;;;4406074;32;20124;-68
2022/03/03 07:27:31;;;;;;;2.75;1.40;;;1.90;99.90;;;;;;4420104;32;20484;-66
2022/03/03 07:29:59;;;;;;;1.08;1.05;;;2.00;99.90;;;;;;4424090;32;20109;-65
2022/03/03 07:32:33;;;;;;;0.85;0.85;;;1.90;99.90;;;;;;4424023;32;20543;-65
2022/03/03 07:35:01;;;;;;;2.37;1.70;;;1.80;99.90;;;;;;4421660;32;205844;-65
2022/03/03 07:37:33;;;;;;;2.30;2.05;;;1.80;99.90;;;;;;4431204;32;20703;-65
2022/03/03 07:40:05;;;;;;;1.02;1.02;;;2.00;99.90;;;;;;4419800;32;20673;-65
2022/03/03 07:42:30;;;;;;;1.58;1.48;;;2.00;99.90;;;;;;4427572;32;20100;-65
2022/03/03 07:44:56;;;;;;;27.35;1.52;;;2.10;99.90;;;;;;4412521;32;20668;-65
2022/03/03 07:47:22;;;;;;;1.40;1.33;;;2.20;99.90;;;;;;4417510;32;20762;-65
2022/03/03 07:49:48;;;;;;;2.58;1.05;;;2.30;99.90;;;;;;4417088;32;20074;-65
2022/03/03 07:52:13;;;;;;;1.30;1.20;;;2.40;99.90;;;;;;4423657;32;20089;-64
2022/03/03 07:54:39;;;;;;;2.08;1.58;;;2.30;99.90;;;;;;4419744;32;20060;-65
2022/03/03 07:57:08;;;;;;;1.62;1.52;;;2.30;99.90;;;;;;4419689;32;20494;-65
2022/03/03 07:59:36;;;;;;;2.95;1.08;;;2.30;99.90;;;;;;4421549;32;20061;-65
2022/03/03 08:02:03;;;;;;;2.72;1.50;;;2.40;99.90;;;;;;4422647;32;20176;-65
2022/03/03 08:04:30;;;;;;;2.17;1.52;;;2.30;99.90;;;;;;4423025;32;20085;-65
2022/03/03 08:07:04;;;;;;;16.83;2.60;;;2.30;99.90;;;;;;4416432;32;20545;-65
2022/03/03 08:09:31;;;;;;;1.70;1.60;;;2.40;99.90;;;;;;4418713;32;20230;-65
2022/03/03 08:12:02;;;;;;;6.45;1.33;;;2.50;99.90;;;;;;4421032;32;20369;-64
2022/03/03 08:14:29;;;;;;;4.50;2.95;;;2.40;99.90;;;;;;4417144;32;20176;-64
2022/03/03 08:16:54;;;;;;;1.20;1.17;;;2.40;99.90;;;;;;4420764;32;20077;-65
2022/03/03 08:19:21;;;;;;;1.52;1.40;;;2.40;99.90;;;;;;4427503;32;20648;-65
2022/03/03 08:21:48;;;;;;;1.17;1.17;;;2.50;99.90;;;;;;4424947;32;20577;-65
2022/03/03 08:24:14;;;;;;;2.33;1.73;;;2.70;99.90;;;;;;4420333;32;20093;-65
2022/03/03 08:26:42;;;;;;;0.80;0.80;;;2.70;99.90;;;;;;4424175;32;20113;-65
2022/03/03 08:29:07;;;;;;;13.18;1.75;;;2.50;99.90;;;;;;4423670;32;20152;-65
2022/03/03 08:31:39;;;;;;;3.95;1.85;;;2.60;99.90;;;;;;4420964;32;20806;-65
2022/03/03 08:34:14;;;;;;;3.00;2.67;;;2.70;99.90;;;;;;4426638;32;20085;-65
2022/03/03 08:36:54;;;;;;;2.40;2.17;;;2.70;99.90;;;;;;4424464;32;20080;-65
2022/03/03 08:39:26;;;;;;;6.65;1.35;;;2.60;99.90;;;;;;4420287;32;20575;-65
2022/03/03 08:41:55;;;;;;;1.52;1.42;;;2.50;99.90;;;;;;4415671;32;20092;-65
2022/03/03 08:44:25;;;;;;;3.47;2.30;;;2.40;99.90;;;;;;4425393;32;20844;-65
2022/03/03 08:46:51;;;;;;;3.45;2.08;;;2.40;99.90;;;;;;4425146;32;20478;-65
2022/03/03 08:49:17;;;;;;;2.40;2.12;;;2.40;99.90;;;;;;4421761;32;20208;-65
2022/03/03 08:51:43;;;;;;;5.35;1.95;;;2.20;99.90;;;;;;4412888;32;20146;-65
2022/03/03 08:54:11;;;;;;;1.50;1.40;;;2.20;99.90;;;;;;4401199;32;20140;-66
2022/03/03 08:56:36;;;;;;;40.03;3.60;;;2.00;99.90;;;;;;4414265;32;20101;-65
2022/03/03 08:59:02;;;;;;;3.65;2.15;;;2.00;99.90;;;;;;4415918;32;20109;-65
2022/03/03 09:01:29;;;;;;;2.12;1.80;;;2.00;99.90;;;;;;4418299;32;20080;-65
2022/03/03 09:03:57;;;;;;;3.03;1.77;;;2.10;99.90;;;;;;4417391;32;20064;-65
2022/03/03 09:06:23;;;;;;;15.75;2.47;;;2.10;99.90;;;;;;4416688;32;20100;-65
2022/03/03 09:08:49;;;;;;;2.12;1.65;;;2.00;99.90;;;;;;4416282;32;20197;-65
2022/03/03 09:11:16;;;;;;;2.53;1.75;;;1.90;99.90;;;;;;4423253;32;20084;-65
2022/03/03 09:13:41;;;;;;;3.25;2.00;;;2.00;99.90;;;;;;4418431;32;20660;-65
2022/03/03 09:16:07;;;;;;;1.90;1.50;;;2.00;99.90;;;;;;4422750;32;20182;-65
2022/03/03 09:18:34;;;;;;;1.67;1.55;;;2.30;99.90;;;;;;4417385;32;20093;-65
2022/03/03 09:21:00;;;;;;;1.80;1.70;;;2.00;99.90;;;;;;4421482;32;20141;-65
2022/03/03 09:23:25;;;;;;;4.68;1.85;;;1.80;99.90;;;;;;4421371;32;20081;-65
2022/03/03 09:25:50;;;;;;;2.15;1.95;;;1.80;99.90;;;;;;4419118;32;20552;-65
2022/03/03 09:28:16;;;;;;;1.33;1.25;;;1.70;99.90;;;;;;4421594;32;20097;-65
2022/03/03 09:30:41;;;;;;;2.75;2.05;;;1.90;99.90;;;;;;4421520;32;20085;-65
2022/03/03 09:33:08;;;;;;;14.95;1.52;;;1.80;99.90;;;;;;4419311;32;21026;-65
2022/03/03 09:35:33;;;;;;;0.98;0.98;;;1.70;99.90;;;;;;4417633;32;20101;-65
2022/03/03 09:37:59;;;;;;;0.82;0.82;;;1.70;99.90;;;;;;4420392;32;20101;-65
2022/03/03 09:40:25;;;;;;;6.85;3.37;;;1.60;99.90;;;;;;4422969;32;20191;-65
2022/03/03 09:42:58;;;;;;;1.08;1.08;;;1.80;99.90;;;;;;4424201;32;20088;-65
2022/03/03 09:45:25;;;;;;;1.45;1.35;;;1.90;99.90;;;;;;4426825;32;20116;-65
2022/03/03 09:47:53;;;;;;;0.77;0.77;;;2.00;99.90;;;;;;4426712;32;20158;-65
2022/03/03 09:50:19;;;;;;;0.77;0.77;;;1.90;99.90;;;;;;4423553;32;20080;-65
2022/03/03 09:52:45;;;;;;;0.70;0.70;;;1.80;99.90;;;;;;4422409;32;20068;-65
2022/03/03 09:55:11;;;;;;;1.15;1.05;;;1.90;99.90;;;;;;4425224;32;20117;-65
2022/03/03 09:57:36;;;;;;;1.92;1.48;;;1.90;99.90;;;;;;4419463;32;20088;-65
2022/03/03 10:00:04;;;;;;;1.17;0.77;;;2.00;99.90;;;;;;4420816;32;20076;-65
2022/03/03 10:02:30;;;;;;;1.30;1.00;;;2.10;99.90;;;;;;4421722;32;20277;-65
2022/03/03 10:04:56;;;;;;;0.88;0.88;;;1.90;99.90;;;;;;4417918;32;20077;-64
2022/03/03 10:07:24;;;;;;;0.88;0.80;;;2.00;99.90;;;;;;4422448;32;20082;-64
2022/03/03 10:10:13;;;;;;;1.90;1.10;;;2.00;99.90;;;;;;4420924;32;20108;-64
2022/03/03 10:12:45;;;;;;;1.40;1.20;;;2.00;99.90;;;;;;4407460;32;20521;-63
2022/03/03 10:15:13;;;;;;;2.37;0.88;;;2.00;99.90;;;;;;4402261;32;20169;-64
2022/03/03 10:17:39;;;;;;;4.78;1.65;;;1.90;99.90;;;;;;4399204;32;20090;-64
2022/03/03 10:20:07;;;;;;;1.55;1.25;;;2.10;99.90;;;;;;4412400;32;20801;-64
2022/03/03 10:22:42;;;;;;;1.80;1.05;;;2.30;99.90;;;;;;4413898;32;20085;-65
2022/03/03 10:25:10;;;;;;;1.77;1.65;;;2.50;99.90;;;;;;4419439;32;20442;-65
2022/03/03 10:27:36;;;;;;;0.70;0.70;;;2.40;99.90;;;;;;4423689;32;20169;-65
2022/03/03 10:30:03;;;;;;;2.22;0.88;;;2.30;99.90;;;;;;4425042;32;20064;-65
2022/03/03 10:32:29;;;;;;;1.17;1.05;;;2.30;99.90;;;;;;4415885;32;20061;-65
2022/03/03 10:35:01;;;;;;;1.80;1.12;;;2.30;99.90;;;;;;4432589;32;20474;-65
2022/03/03 10:37:27;;;;;;;1.55;0.77;;;2.20;99.90;;;;;;4434192;32;20124;-65
2022/03/03 10:39:58;;;;;;;1.70;1.58;;;2.20;99.90;;;;;;4434825;32;20537;-65
2022/03/03 10:42:25;;;;;;;0.60;0.60;;;2.20;99.90;;;;;;4432839;32;20151;-65
2022/03/03 10:45:05;;;;;;;1.25;1.17;;;2.20;99.90;;;;;;4433577;32;20081;-65
2022/03/03 10:47:31;;;;;;;0.70;0.70;;;2.20;99.90;;;;;;4438116;32;20491;-65
2022/03/03 10:49:59;;;;;;;0.98;0.95;;;2.20;99.90;;;;;;4430279;32;20158;-65
2022/03/03 10:52:27;;;;;;;1.00;0.85;;;2.20;99.90;;;;;;4431231;32;20089;-65
2022/03/03 10:54:56;;;;;;;5.65;1.40;;;2.40;99.90;;;;;;4434481;32;20579;-65
2022/03/03 10:57:49;;;;;;;2.08;1.25;;;2.70;99.90;;;;;;4433967;32;20082;-65
2022/03/03 11:00:19;;;;;;;0.50;0.50;;;2.60;99.90;;;;;;4437306;32;20423;-65
2022/03/03 11:02:48;;;;;;;0.60;0.60;;;2.70;99.90;;;;;;4435784;32;20084;-65
2022/03/03 11:05:15;;;;;;;1.15;1.00;;;2.60;99.90;;;;;;4438658;32;20089;-64
2022/03/03 11:07:43;;;;;;;0.70;0.70;;;2.50;99.90;;;;;;4435133;32;20053;-64
2022/03/03 11:10:12;;;;;;;0.60;0.60;;;2.40;99.90;;;;;;4436483;32;20089;-65
2022/03/03 11:12:40;;;;;;;1.10;1.05;;;2.40;99.90;;;;;;4425840;32;20664;-65
2022/03/03 11:15:06;;;;;;;0.70;0.70;;;2.50;99.90;;;;;;4425012;32;20458;-66
2022/03/03 11:17:32;;;;;;;3.95;1.92;;;2.50;99.90;;;;;;4440166;32;20069;-65
2022/03/03 11:19:59;;;;;;;0.60;0.60;;;2.50;99.90;;;;;;4435524;32;20117;-66
2022/03/03 11:22:26;;;;;;;0.60;0.60;;;2.50;99.90;;;;;;4431598;32;20069;-66
2022/03/03 11:24:55;;;;;;;5.00;0.88;;;2.60;99.90;;;;;;4436007;32;20076;-66
2022/03/03 11:27:30;;;;;;;2.65;1.20;;;2.60;99.90;;;;;;4434746;32;20128;-66
2022/03/03 11:30:26;;;;;;;2.75;1.23;;;2.60;99.90;;;;;;4437654;32;20169;-66
2022/03/03 11:33:33;;;;;;;0.70;0.70;;;2.60;99.90;;;;;;4438026;32;20084;-65
2022/03/03 11:36:01;;;;;;;0.40;0.40;;;2.60;99.90;;;;;;4415547;32;20108;-65
2022/03/03 11:38:48;;;;;;;1.15;0.77;;;2.80;99.90;;;;;;4436096;32;20252;-65
2022/03/03 11:41:13;;;;;;;1.05;0.98;;;2.80;99.90;;;;;;4428273;32;20068;-64
2022/03/03 11:43:48;;;;;;;1.20;0.98;;;2.80;99.90;;;;;;4435084;32;20070;-65
2022/03/03 11:46:37;;;;;;;0.70;0.70;;;2.90;99.90;;;;;;4432789;32;20073;-65
2022/03/03 11:49:22;;;;;;;2.08;1.00;;;2.80;99.90;;;;;;4425224;32;20064;-65
2022/03/03 11:51:49;;;;;;;0.88;0.88;;;2.60;99.90;;;;;;4435266;32;20089;-65
2022/03/03 11:54:15;;;;;;;0.47;0.47;;;2.70;99.90;;;;;;4435587;32;20073;-65
2022/03/03 11:57:06;;;;;;;0.60;0.60;;;2.80;99.90;;;;;;4435473;32;20421;-64
2022/03/03 11:59:36;;;;;;;0.82;0.82;;;2.80;99.90;;;;;;4425750;32;20065;-64
2022/03/03 12:02:01;;;;;;;0.98;0.82;;;3.00;99.90;;;;;;4434669;32;20101;-64
2022/03/03 12:04:27;;;;;;;1.52;1.30;;;3.00;99.90;;;;;;4437901;32;20065;-64
2022/03/03 12:06:54;;;;;;;0.73;0.73;;;3.10;99.90;;;;;;4433909;32;20139;-65
2022/03/03 12:09:32;;;;;;;1.80;0.85;;;3.10;99.90;;;;;;4437731;32;20118;-64
2022/03/03 12:12:07;;;;;;;0.75;0.70;;;3.10;99.90;;;;;;4432586;32;20096;-65
2022/03/03 12:14:35;;;;;;;2.45;1.02;;;3.10;99.90;;;;;;4434338;32;20070;-65
2022/03/03 12:17:42;;;;;;;1.15;1.05;;;3.00;99.90;;;;;;4436011;32;20068;-65
2022/03/03 12:20:30;;;;;;;0.40;0.40;;;3.00;99.90;;;;;;4419111;32;20083;-65
2022/03/03 12:23:07;;;;;;;0.50;0.50;;;3.00;99.90;;;;;;4420519;32;20090;-65
2022/03/03 12:25:55;;;;;;;0.93;0.93;;;2.90;99.90;;;;;;4432161;32;20097;-65
2022/03/03 12:28:24;;;;;;;1.98;1.33;;;3.00;99.90;;;;;;4429021;32;20139;-65
2022/03/03 12:30:51;;;;;;;1.85;1.15;;;3.20;99.90;;;;;;4427064;32;20085;-65
2022/03/03 12:33:28;;;;;;;1.10;0.88;;;3.20;99.90;;;;;;4437263;32;20562;-65
2022/03/03 12:36:09;;;;;;;0.70;0.70;;;3.20;99.90;;;;;;4436404;32;20073;-65
2022/03/03 12:38:35;;;;;;;0.60;0.60;;;3.20;99.90;;;;;;4434187;32;20160;-66
2022/03/03 12:41:01;;;;;;;1.10;1.00;;;3.30;99.90;;;;;;4433788;32;20072;-65
2022/03/03 12:43:36;;;;;;;0.75;0.75;;;3.20;99.90;;;;;;4434517;32;20058;-65
2022/03/03 12:46:02;;;;;;;0.40;0.40;;;3.00;99.90;;;;;;4438656;32;20188;-65
2022/03/03 12:48:30;;;;;;;1.45;1.15;;;3.00;99.90;;;;;;4434003;32;20637;-65
2022/03/03 12:51:02;;;;;;;1.15;1.02;;;3.00;99.90;;;;;;4429907;32;20647;-65
2022/03/03 12:53:35;;;;;;;0.47;0.47;;;3.20;99.90;;;;;;4433423;32;20076;-65
2022/03/03 12:56:02;;;;;;;3.40;1.23;;;3.10;99.90;;;;;;4435587;32;20503;-64
2022/03/03 12:58:30;;;;;;;0.50;0.50;;;3.20;99.90;;;;;;4430579;32;20061;-64
2022/03/03 13:00:56;;;;;;;1.50;0.75;;;3.10;99.90;;;;;;4431825;32;20489;-64